sensor_id;sensor_type;location;lat;lon;timestamp;pressure;altitude;pressure_sealevel;temperature;humidity
19600;BME280;9947;57.722;12.012;2023-08-20T00:00:39;101494.34;;;18.81;100.00
19600;BME280;9947;57.722;12.012;2023-08-20T00:03:11;101490.75;;;18.80;100.00
19600;BME280;9947;57.722;12.012;2023-08-20T00:05:41;101494.66;;;18.77;100.00
19600;BME280;9947;57.722;12.012;2023-08-20T00:08:09;101504.06;;;18.75;100.00
19600;BME280;9947;57.722;12.012;2023-08-20T00:10:37;101504.31;;;18.72;100.00
19600;BME280;9947;57.722;12.012;2023-08-20T00:13:07;101511.28;;;18.66;100.00
19600;BME280;9947;57.722;12.012;2023-08-20T00:18:06;101515.34;;;18.53;100.00
19600;BME280;9947;57.722;12.012;2023-08-20T00:22:59;101533.22;;;18.47;100.00
19600;BME280;9947;57.722;12.012;2023-08-20T00:33:51;101557.06;;;18.17;100.00
19600;BME280;9947;57.722;12.012;2023-08-20T00:36:22;101563.41;;;18.18;100.00
19600;BME280;9947;57.722;12.012;2023-08-20T00:38:50;101571.78;;;18.16;100.00
19600;BME280;9947;57.722;12.012;2023-08-20T00:41:26;101573.94;;;18.13;100.00
19600;BME280;9947;57.722;12.012;2023-08-20T00:43:54;101577.84;;;18.10;100.00
19600;BME280;9947;57.722;12.012;2023-08-20T00:46:27;101595.56;;;18.06;100.00
19600;BME280;9947;57.722;12.012;2023-08-20T00:49:04;101593.41;;;18.00;100.00
19600;BME280;9947;57.722;12.012;2023-08-20T00:51:33;101599.91;;;17.99;100.00
19600;BME280;9947;57.722;12.012;2023-08-20T00:54:03;101606.78;;;17.94;100.00
19600;BME280;9947;57.722;12.012;2023-08-20T00:59:04;101614.13;;;17.93;100.00
19600;BME280;9947;57.722;12.012;2023-08-20T01:04:01;101636.59;;;17.87;100.00
19600;BME280;9947;57.722;12.012;2023-08-20T01:06:37;101631.56;;;17.82;100.00
19600;BME280;9947;57.722;12.012;2023-08-20T01:12:06;101647.69;;;17.85;100.00
19600;BME280;9947;57.722;12.012;2023-08-20T01:17:06;101664.66;;;17.79;100.00
19600;BME280;9947;57.722;12.012;2023-08-20T01:22:21;101670.69;;;17.73;100.00
19600;BME280;9947;57.722;12.012;2023-08-20T01:24:59;101690.44;;;17.77;100.00
19600;BME280;9947;57.722;12.012;2023-08-20T01:29:58;101686.25;;;17.73;100.00
19600;BME280;9947;57.722;12.012;2023-08-20T01:32:29;101694.84;;;17.68;100.00
19600;BME280;9947;57.722;12.012;2023-08-20T01:34:59;101687.66;;;17.67;100.00
19600;BME280;9947;57.722;12.012;2023-08-20T01:37:28;101696.72;;;17.68;100.00
19600;BME280;9947;57.722;12.012;2023-08-20T01:39:58;101698.69;;;17.66;100.00
19600;BME280;9947;57.722;12.012;2023-08-20T01:42:29;101695.84;;;17.67;100.00
19600;BME280;9947;57.722;12.012;2023-08-20T01:45:00;101694.22;;;17.65;100.00
19600;BME280;9947;57.722;12.012;2023-08-20T01:47:30;101695.66;;;17.59;100.00
19600;BME280;9947;57.722;12.012;2023-08-20T01:50:00;101703.88;;;17.59;100.00
19600;BME280;9947;57.722;12.012;2023-08-20T01:52:27;101699.41;;;17.58;100.00
19600;BME280;9947;57.722;12.012;2023-08-20T01:55:12;101702.28;;;17.56;100.00
19600;BME280;9947;57.722;12.012;2023-08-20T01:57:42;101693.34;;;17.54;100.00
19600;BME280;9947;57.722;12.012;2023-08-20T02:00:16;101696.97;;;17.55;100.00
19600;BME280;9947;57.722;12.012;2023-08-20T02:02:44;101700.84;;;17.52;100.00
19600;BME280;9947;57.722;12.012;2023-08-20T02:05:17;101706.31;;;17.52;100.00
19600;BME280;9947;57.722;12.012;2023-08-20T02:07:44;101704.00;;;17.57;100.00
19600;BME280;9947;57.722;12.012;2023-08-20T02:10:14;101701.69;;;17.53;100.00
19600;BME280;9947;57.722;12.012;2023-08-20T02:12:43;101697.38;;;17.50;100.00
19600;BME280;9947;57.722;12.012;2023-08-20T02:15:15;101691.03;;;17.50;100.00
19600;BME280;9947;57.722;12.012;2023-08-20T02:20:12;101696.78;;;17.47;100.00
19600;BME280;9947;57.722;12.012;2023-08-20T02:22:56;101694.66;;;17.50;100.00
19600;BME280;9947;57.722;12.012;2023-08-20T02:25:25;101694.50;;;17.52;100.00
19600;BME280;9947;57.722;12.012;2023-08-20T02:27:56;101689.34;;;17.58;100.00
19600;BME280;9947;57.722;12.012;2023-08-20T02:30:33;101697.81;;;17.55;100.00
19600;BME280;9947;57.722;12.012;2023-08-20T02:33:13;101699.69;;;17.55;100.00
19600;BME280;9947;57.722;12.012;2023-08-20T02:35:41;101702.28;;;17.56;100.00
19600;BME280;9947;57.722;12.012;2023-08-20T02:38:11;101700.56;;;17.55;100.00
19600;BME280;9947;57.722;12.012;2023-08-20T02:40:40;101695.81;;;17.57;100.00
19600;BME280;9947;57.722;12.012;2023-08-20T02:43:11;101701.69;;;17.53;100.00
19600;BME280;9947;57.722;12.012;2023-08-20T02:48:13;101705.16;;;17.55;100.00
19600;BME280;9947;57.722;12.012;2023-08-20T02:50:42;101705.00;;;17.56;100.00
19600;BME280;9947;57.722;12.012;2023-08-20T02:53:10;101706.03;;;17.55;100.00
19600;BME280;9947;57.722;12.012;2023-08-20T02:58:09;101707.47;;;17.60;100.00
19600;BME280;9947;57.722;12.012;2023-08-20T03:03:12;101715.25;;;17.64;100.00
19600;BME280;9947;57.722;12.012;2023-08-20T03:05:43;101716.72;;;17.68;100.00
19600;BME280;9947;57.722;12.012;2023-08-20T03:08:11;101717.34;;;17.72;100.00
19600;BME280;9947;57.722;12.012;2023-08-20T03:10:40;101714.59;;;17.72;100.00
19600;BME280;9947;57.722;12.012;2023-08-20T03:13:07;101724.41;;;17.74;100.00
19600;BME280;9947;57.722;12.012;2023-08-20T03:15:43;101728.00;;;17.75;100.00
19600;BME280;9947;57.722;12.012;2023-08-20T03:21:08;101725.41;;;17.73;100.00
19600;BME280;9947;57.722;12.012;2023-08-20T03:23:50;101730.59;;;17.76;100.00
19600;BME280;9947;57.722;12.012;2023-08-20T03:26:24;101718.50;;;17.79;100.00
19600;BME280;9947;57.722;12.012;2023-08-20T03:28:53;101725.41;;;17.73;100.00
19600;BME280;9947;57.722;12.012;2023-08-20T03:31:21;101707.66;;;17.68;100.00
19600;BME280;9947;57.722;12.012;2023-08-20T03:33:57;101714.00;;;17.68;100.00
19600;BME280;9947;57.722;12.012;2023-08-20T03:36:26;101715.84;;;17.68;100.00
19600;BME280;9947;57.722;12.012;2023-08-20T03:38:53;101708.53;;;17.68;100.00
19600;BME280;9947;57.722;12.012;2023-08-20T03:41:33;101710.38;;;17.68;100.00
19600;BME280;9947;57.722;12.012;2023-08-20T03:44:03;101712.13;;;17.69;100.00
19600;BME280;9947;57.722;12.012;2023-08-20T03:49:03;101728.13;;;17.73;100.00
19600;BME280;9947;57.722;12.012;2023-08-20T03:53:58;101730.59;;;17.76;100.00
19600;BME280;9947;57.722;12.012;2023-08-20T03:56:30;101731.31;;;17.78;100.00
19600;BME280;9947;57.722;12.012;2023-08-20T04:02:08;101726.25;;;17.74;100.00
19600;BME280;9947;57.722;12.012;2023-08-20T04:04:45;101741.53;;;17.76;100.00
19600;BME280;9947;57.722;12.012;2023-08-20T04:07:15;101736.06;;;17.76;100.00
19600;BME280;9947;57.722;12.012;2023-08-20T04:09:45;101744.13;;;17.78;100.00
19600;BME280;9947;57.722;12.012;2023-08-20T04:12:14;101744.69;;;17.81;100.00
19600;BME280;9947;57.722;12.012;2023-08-20T04:14:43;101745.72;;;17.80;100.00
19600;BME280;9947;57.722;12.012;2023-08-20T04:17:14;101745.56;;;17.82;100.00
19600;BME280;9947;57.722;12.012;2023-08-20T04:22:15;101753.50;;;17.85;100.00
19600;BME280;9947;57.722;12.012;2023-08-20T04:24:43;101748.75;;;17.87;100.00
19600;BME280;9947;57.722;12.012;2023-08-20T04:27:11;101748.28;;;17.82;100.00
19600;BME280;9947;57.722;12.012;2023-08-20T04:29:43;101738.38;;;17.81;100.00
19600;BME280;9947;57.722;12.012;2023-08-20T04:32:11;101743.56;;;17.84;100.00
19600;BME280;9947;57.722;12.012;2023-08-20T04:34:39;101746.00;;;17.87;100.00
19600;BME280;9947;57.722;12.012;2023-08-20T04:37:09;101751.91;;;17.92;100.00
19600;BME280;9947;57.722;12.012;2023-08-20T04:40:02;101754.38;;;17.95;100.00
19600;BME280;9947;57.722;12.012;2023-08-20T04:44:57;101763.75;;;18.02;100.00
19600;BME280;9947;57.722;12.012;2023-08-20T04:47:25;101762.59;;;18.05;100.00
19600;BME280;9947;57.722;12.012;2023-08-20T04:49:55;101759.72;;;18.06;100.00
19600;BME280;9947;57.722;12.012;2023-08-20T04:52:27;101754.41;;;18.14;100.00
19600;BME280;9947;57.722;12.012;2023-08-20T04:54:57;101752.09;;;18.10;100.00
19600;BME280;9947;57.722;12.012;2023-08-20T04:57:26;101756.13;;;18.06;100.00
19600;BME280;9947;57.722;12.012;2023-08-20T04:59:56;101751.97;;;18.11;100.00
19600;BME280;9947;57.722;12.012;2023-08-20T05:02:25;101758.28;;;18.12;100.00
19600;BME280;9947;57.722;12.012;2023-08-20T05:04:55;101753.97;;;18.09;100.00
19600;BME280;9947;57.722;12.012;2023-08-20T05:07:25;101751.38;;;18.08;100.00
19600;BME280;9947;57.722;12.012;2023-08-20T05:09:53;101748.50;;;18.09;100.00
19600;BME280;9947;57.722;12.012;2023-08-20T05:12:21;101736.41;;;18.02;100.00
19600;BME280;9947;57.722;12.012;2023-08-20T05:14:51;101746.06;;;18.06;100.00
19600;BME280;9947;57.722;12.012;2023-08-20T05:17:19;101746.06;;;18.06;100.00
19600;BME280;9947;57.722;12.012;2023-08-20T05:19:47;101744.16;;;17.97;100.00
19600;BME280;9947;57.722;12.012;2023-08-20T05:22:17;101748.63;;;17.98;100.00
19600;BME280;9947;57.722;12.012;2023-08-20T05:24:45;101739.28;;;18.01;100.00
19600;BME280;9947;57.722;12.012;2023-08-20T05:27:16;101753.97;;;18.00;100.00
19600;BME280;9947;57.722;12.012;2023-08-20T05:29:46;101736.97;;;18.06;100.00
19600;BME280;9947;57.722;12.012;2023-08-20T05:32:15;101737.56;;;18.09;100.00
19600;BME280;9947;57.722;12.012;2023-08-20T05:34:45;101750.09;;;18.12;100.00
19600;BME280;9947;57.722;12.012;2023-08-20T05:37:13;101748.06;;;18.14;100.00
19600;BME280;9947;57.722;12.012;2023-08-20T05:42:09;101731.94;;;18.01;100.00
19600;BME280;9947;57.722;12.012;2023-08-20T05:47:10;101732.66;;;18.03;100.00
19600;BME280;9947;57.722;12.012;2023-08-20T05:49:40;101724.59;;;18.11;100.00
19600;BME280;9947;57.722;12.012;2023-08-20T05:52:08;101725.03;;;18.16;100.00
19600;BME280;9947;57.722;12.012;2023-08-20T05:57:04;101720.00;;;18.22;100.00
19600;BME280;9947;57.722;12.012;2023-08-20T06:01:57;101692.78;;;18.30;100.00
19600;BME280;9947;57.722;12.012;2023-08-20T06:04:28;101691.63;;;18.32;100.00
19600;BME280;9947;57.722;12.012;2023-08-20T06:07:05;101685.41;;;18.40;100.00
19600;BME280;9947;57.722;12.012;2023-08-20T06:12:02;101678.78;;;18.52;100.00
19600;BME280;9947;57.722;12.012;2023-08-20T06:14:30;101675.91;;;18.54;100.00
19600;BME280;9947;57.722;12.012;2023-08-20T06:16:59;101670.69;;;18.60;100.00
19600;BME280;9947;57.722;12.012;2023-08-20T06:19:26;101674.59;;;18.58;100.00
19600;BME280;9947;57.722;12.012;2023-08-20T06:21:58;101660.59;;;18.70;100.00
19600;BME280;9947;57.722;12.012;2023-08-20T06:24:28;101648.22;;;18.66;100.00
19600;BME280;9947;57.722;12.012;2023-08-20T06:26:57;101640.16;;;18.65;100.00
19600;BME280;9947;57.722;12.012;2023-08-20T06:29:47;101636.25;;;18.67;100.00
19600;BME280;9947;57.722;12.012;2023-08-20T06:32:23;101641.13;;;18.73;100.00
19600;BME280;9947;57.722;12.012;2023-08-20T06:34:51;101639.84;;;18.77;100.00
19600;BME280;9947;57.722;12.012;2023-08-20T06:37:19;101640.56;;;18.79;100.00
19600;BME280;9947;57.722;12.012;2023-08-20T06:39:48;101630.88;;;18.85;100.00
19600;BME280;9947;57.722;12.012;2023-08-20T06:42:17;101624.53;;;18.85;100.00
19600;BME280;9947;57.722;12.012;2023-08-20T06:44:45;101641.31;;;18.99;100.00
19600;BME280;9947;57.722;12.012;2023-08-20T06:47:13;101634.00;;;18.90;100.00
19600;BME280;9947;57.722;12.012;2023-08-20T06:49:42;101622.59;;;18.95;100.00
19600;BME280;9947;57.722;12.012;2023-08-20T06:52:10;101633.25;;;18.98;100.00
19600;BME280;9947;57.722;12.012;2023-08-20T06:54:40;101624.53;;;18.85;100.00
19600;BME280;9947;57.722;12.012;2023-08-20T06:57:11;101633.66;;;18.75;100.00
19600;BME280;9947;57.722;12.012;2023-08-20T06:59:43;101626.84;;;18.79;100.00
19600;BME280;9947;57.722;12.012;2023-08-20T07:02:15;101639.13;;;18.75;100.00
19600;BME280;9947;57.722;12.012;2023-08-20T07:04:54;101641.41;;;18.70;100.00
19600;BME280;9947;57.722;12.012;2023-08-20T07:07:24;101644.16;;;18.70;100.00
19600;BME280;9947;57.722;12.012;2023-08-20T07:09:52;101643.44;;;18.78;100.00
19600;BME280;9947;57.722;12.012;2023-08-20T07:12:29;101647.00;;;18.88;100.00
19600;BME280;9947;57.722;12.012;2023-08-20T07:14:56;101640.06;;;18.94;100.00
19600;BME280;9947;57.722;12.012;2023-08-20T07:17:27;101637.31;;;18.94;100.00
19600;BME280;9947;57.722;12.012;2023-08-20T07:20:00;101645.81;;;19.00;100.00
19600;BME280;9947;57.722;12.012;2023-08-20T07:22:34;101643.63;;;19.04;100.00
19600;BME280;9947;57.722;12.012;2023-08-20T07:25:08;101631.84;;;19.21;100.00
19600;BME280;9947;57.722;12.012;2023-08-20T07:27:45;101635.06;;;19.17;100.00
19600;BME280;9947;57.722;12.012;2023-08-20T07:30:18;101630.50;;;19.07;100.00
19600;BME280;9947;57.722;12.012;2023-08-20T07:32:46;101632.75;;;18.85;100.00
19600;BME280;9947;57.722;12.012;2023-08-20T07:35:13;101629.91;;;18.76;100.00
19600;BME280;9947;57.722;12.012;2023-08-20T07:37:44;101645.78;;;18.63;100.00
19600;BME280;9947;57.722;12.012;2023-08-20T07:40:14;101657.75;;;18.62;100.00
19600;BME280;9947;57.722;12.012;2023-08-20T07:42:44;101673.44;;;18.60;100.00
19600;BME280;9947;57.722;12.012;2023-08-20T07:45:14;101677.31;;;18.58;100.00
19600;BME280;9947;57.722;12.012;2023-08-20T07:47:42;101679.75;;;18.61;100.00
19600;BME280;9947;57.722;12.012;2023-08-20T07:50:09;101693.47;;;18.51;100.00
19600;BME280;9947;57.722;12.012;2023-08-20T07:55:04;101697.50;;;18.57;100.00
19600;BME280;9947;57.722;12.012;2023-08-20T07:57:31;101701.53;;;18.72;100.00
19600;BME280;9947;57.722;12.012;2023-08-20T08:00:07;101702.84;;;18.68;100.00
19600;BME280;9947;57.722;12.012;2023-08-20T08:02:42;101710.91;;;18.69;100.00
19600;BME280;9947;57.722;12.012;2023-08-20T08:05:11;101709.91;;;18.70;100.00
19600;BME280;9947;57.722;12.012;2023-08-20T08:10:06;101724.59;;;18.60;100.00
19600;BME280;9947;57.722;12.012;2023-08-20T08:14:59;101725.03;;;18.55;100.00
19600;BME280;9947;57.722;12.012;2023-08-20T08:17:31;101730.66;;;18.44;100.00
19600;BME280;9947;57.722;12.012;2023-08-20T08:20:10;101734.84;;;18.48;100.00
19600;BME280;9947;57.722;12.012;2023-08-20T08:27:59;101748.53;;;18.29;100.00
19600;BME280;9947;57.722;12.012;2023-08-20T08:30:31;101744.94;;;18.28;100.00
19600;BME280;9947;57.722;12.012;2023-08-20T08:33:15;101751.09;;;18.21;100.00
19600;BME280;9947;57.722;12.012;2023-08-20T08:35:43;101764.66;;;18.22;100.00
19600;BME280;9947;57.722;12.012;2023-08-20T08:38:11;101756.88;;;18.27;100.00
19600;BME280;9947;57.722;12.012;2023-08-20T08:43:16;101760.34;;;18.48;100.00
19600;BME280;9947;57.722;12.012;2023-08-20T08:45:50;101759.34;;;18.49;100.00
19600;BME280;9947;57.722;12.012;2023-08-20T08:48:20;101745.38;;;18.62;100.00
19600;BME280;9947;57.722;12.012;2023-08-20T08:50:49;101750.25;;;18.68;100.00
19600;BME280;9947;57.722;12.012;2023-08-20T08:53:23;101748.13;;;18.62;100.00
19600;BME280;9947;57.722;12.012;2023-08-20T08:55:54;101750.84;;;18.53;100.00
19600;BME280;9947;57.722;12.012;2023-08-20T08:58:26;101736.56;;;18.49;100.00
19600;BME280;9947;57.722;12.012;2023-08-20T09:00:54;101732.13;;;18.48;100.00
19600;BME280;9947;57.722;12.012;2023-08-20T09:03:24;101728.91;;;18.43;100.00
19600;BME280;9947;57.722;12.012;2023-08-20T09:05:55;101723.88;;;18.38;100.00
19600;BME280;9947;57.722;12.012;2023-08-20T09:08:32;101723.72;;;18.40;100.00
19600;BME280;9947;57.722;12.012;2023-08-20T09:11:00;101720.84;;;18.41;100.00
19600;BME280;9947;57.722;12.012;2023-08-20T09:13:52;101723.88;;;18.38;100.00
19600;BME280;9947;57.722;12.012;2023-08-20T09:16:54;101712.94;;;18.29;100.00
19600;BME280;9947;57.722;12.012;2023-08-20T09:19:24;101706.03;;;18.34;100.00
19600;BME280;9947;57.722;12.012;2023-08-20T09:21:58;101704.72;;;18.38;100.00
19600;BME280;9947;57.722;12.012;2023-08-20T09:24:32;101698.81;;;18.43;100.00
19600;BME280;9947;57.722;12.012;2023-08-20T09:27:03;101698.50;;;18.46;100.00
19600;BME280;9947;57.722;12.012;2023-08-20T09:29:33;101687.00;;;18.33;100.00
19600;BME280;9947;57.722;12.012;2023-08-20T09:32:01;101682.53;;;18.32;100.00
19600;BME280;9947;57.722;12.012;2023-08-20T09:34:43;101666.25;;;18.40;100.00
19600;BME280;9947;57.722;12.012;2023-08-20T09:37:26;101665.53;;;18.38;100.00
19600;BME280;9947;57.722;12.012;2023-08-20T09:39:54;101658.19;;;18.48;100.00
19600;BME280;9947;57.722;12.012;2023-08-20T09:42:25;101655.84;;;18.43;100.00
19600;BME280;9947;57.722;12.012;2023-08-20T09:45:01;101640.41;;;18.62;100.00
19600;BME280;9947;57.722;12.012;2023-08-20T09:47:34;101628.03;;;18.67;100.00
19600;BME280;9947;57.722;12.012;2023-08-20T09:50:08;101636.69;;;18.63;100.00
19600;BME280;9947;57.722;12.012;2023-08-20T09:52:55;101631.22;;;18.63;100.00
19600;BME280;9947;57.722;12.012;2023-08-20T09:55:32;101631.88;;;18.84;100.00
19600;BME280;9947;57.722;12.012;2023-08-20T09:58:01;101625.44;;;18.75;100.00
19600;BME280;9947;57.722;12.012;2023-08-20T10:00:31;101626.72;;;18.71;100.00
19600;BME280;9947;57.722;12.012;2023-08-20T10:03:00;101623.00;;;18.63;100.00
19600;BME280;9947;57.722;12.012;2023-08-20T10:05:32;101624.59;;;18.56;100.00
19600;BME280;9947;57.722;12.012;2023-08-20T10:08:02;101629.78;;;18.49;100.00
19600;BME280;9947;57.722;12.012;2023-08-20T10:13:17;101642.50;;;18.31;100.00
19600;BME280;9947;57.722;12.012;2023-08-20T10:15:51;101647.38;;;18.37;100.00
19600;BME280;9947;57.722;12.012;2023-08-20T10:18:26;101652.13;;;18.35;100.00
19600;BME280;9947;57.722;12.012;2023-08-20T10:21:01;101648.09;;;18.48;100.00
19600;BME280;9947;57.722;12.012;2023-08-20T10:26:20;101645.22;;;18.40;100.00
19600;BME280;9947;57.722;12.012;2023-08-20T10:28:50;101646.06;;;18.41;100.00
19600;BME280;9947;57.722;12.012;2023-08-20T10:31:26;101650.38;;;18.43;100.00
19600;BME280;9947;57.722;12.012;2023-08-20T10:34:07;101652.25;;;18.43;100.00
19600;BME280;9947;57.722;12.012;2023-08-20T10:36:55;101643.03;;;18.63;100.00
19600;BME280;9947;57.722;12.012;2023-08-20T10:39:30;101633.19;;;18.80;100.00
19600;BME280;9947;57.722;12.012;2023-08-20T10:42:22;101626.84;;;18.79;100.00
19600;BME280;9947;57.722;12.012;2023-08-20T10:45:07;101615.19;;;18.77;100.00
19600;BME280;9947;57.722;12.012;2023-08-20T10:47:48;101621.59;;;18.96;100.00
19600;BME280;9947;57.722;12.012;2023-08-20T10:50:18;101595.31;;;19.03;100.00
19600;BME280;9947;57.722;12.012;2023-08-20T10:52:54;101594.78;;;19.45;100.00
19600;BME280;9947;57.722;12.012;2023-08-20T10:55:23;101581.31;;;19.79;100.00
19600;BME280;9947;57.722;12.012;2023-08-20T10:57:59;101577.44;;;19.89;100.00
19600;BME280;9947;57.722;12.012;2023-08-20T11:01:13;101553.66;;;19.98;100.00
19600;BME280;9947;57.722;12.012;2023-08-20T11:03:49;101546.25;;;19.90;100.00
19600;BME280;9947;57.722;12.012;2023-08-20T11:06:18;101544.63;;;19.80;100.00
19600;BME280;9947;57.722;12.012;2023-08-20T11:08:49;101531.88;;;20.40;100.00
19600;BME280;9947;57.722;12.012;2023-08-20T11:11:17;101532.38;;;20.70;100.00
19600;BME280;9947;57.722;12.012;2023-08-20T11:13:49;101526.84;;;20.96;100.00
19600;BME280;9947;57.722;12.012;2023-08-20T11:16:34;101523.31;;;21.19;100.00
19600;BME280;9947;57.722;12.012;2023-08-20T11:19:04;101520.09;;;21.24;100.00
19600;BME280;9947;57.722;12.012;2023-08-20T11:21:40;101525.44;;;20.83;100.00
19600;BME280;9947;57.722;12.012;2023-08-20T11:24:10;101518.41;;;21.55;100.00
19600;BME280;9947;57.722;12.012;2023-08-20T11:29:05;101511.03;;;21.64;100.00
19600;BME280;9947;57.722;12.012;2023-08-20T11:34:02;101520.66;;;21.44;100.00
19600;BME280;9947;57.722;12.012;2023-08-20T11:36:33;101523.78;;;21.07;100.00
19600;BME280;9947;57.722;12.012;2023-08-20T11:39:12;101519.56;;;21.29;100.00
19600;BME280;9947;57.722;12.012;2023-08-20T11:41:42;101519.63;;;21.37;100.00
19600;BME280;9947;57.722;12.012;2023-08-20T11:44:10;101523.09;;;21.71;100.00
19600;BME280;9947;57.722;12.012;2023-08-20T11:46:45;101525.47;;;21.50;100.00
19600;BME280;9947;57.722;12.012;2023-08-20T11:49:15;101528.03;;;20.93;100.00
19600;BME280;9947;57.722;12.012;2023-08-20T11:51:49;101532.72;;;20.67;100.00
19600;BME280;9947;57.722;12.012;2023-08-20T11:54:23;101535.84;;;20.46;100.00
19600;BME280;9947;57.722;12.012;2023-08-20T11:57:02;101538.31;;;20.83;100.00
19600;BME280;9947;57.722;12.012;2023-08-20T11:59:31;101537.13;;;20.85;100.00
19600;BME280;9947;57.722;12.012;2023-08-20T12:02:14;101524.50;;;21.17;100.00
19600;BME280;9947;57.722;12.012;2023-08-20T12:04:50;101525.97;;;20.95;100.00
19600;BME280;9947;57.722;12.012;2023-08-20T12:07:20;101512.53;;;21.26;100.00
19600;BME280;9947;57.722;12.012;2023-08-20T12:09:49;101510.31;;;21.38;100.00
19600;BME280;9947;57.722;12.012;2023-08-20T12:12:21;101518.66;;;21.20;100.00
19600;BME280;9947;57.722;12.012;2023-08-20T12:14:48;101512.38;;;21.36;100.00
19600;BME280;9947;57.722;12.012;2023-08-20T12:17:17;101517.59;;;21.63;100.00
19600;BME280;9947;57.722;12.012;2023-08-20T12:19:53;101511.03;;;21.72;100.00
19600;BME280;9947;57.722;12.012;2023-08-20T12:22:23;101506.38;;;21.40;100.00
19600;BME280;9947;57.722;12.012;2023-08-20T12:24:56;101503.44;;;21.58;100.00
19600;BME280;9947;57.722;12.012;2023-08-20T12:27:25;101518.59;;;22.03;100.00
19600;BME280;9947;57.722;12.012;2023-08-20T12:29:58;101516.19;;;22.00;100.00
19600;BME280;9947;57.722;12.012;2023-08-20T12:32:29;101512.78;;;21.90;100.00
19600;BME280;9947;57.722;12.012;2023-08-20T12:34:57;101524.44;;;21.83;100.00
19600;BME280;9947;57.722;12.012;2023-08-20T12:37:25;101523.44;;;21.60;100.00
19600;BME280;9947;57.722;12.012;2023-08-20T12:39:58;101510.25;;;21.13;100.00
19600;BME280;9947;57.722;12.012;2023-08-20T12:42:29;101514.47;;;20.91;100.00
19600;BME280;9947;57.722;12.012;2023-08-20T12:44:58;101527.84;;;20.86;100.00
19600;BME280;9947;57.722;12.012;2023-08-20T12:47:26;101525.84;;;20.62;100.00
19600;BME280;9947;57.722;12.012;2023-08-20T12:49:54;101527.09;;;20.76;100.00
19600;BME280;9947;57.722;12.012;2023-08-20T12:52:22;101528.97;;;20.76;100.00
19600;BME280;9947;57.722;12.012;2023-08-20T12:54:51;101522.59;;;21.09;100.00
19600;BME280;9947;57.722;12.012;2023-08-20T12:57:30;101522.66;;;21.34;100.00
19600;BME280;9947;57.722;12.012;2023-08-20T12:59:59;101515.44;;;21.33;100.00
19600;BME280;9947;57.722;12.012;2023-08-20T13:02:32;101512.31;;;21.19;100.00
19600;BME280;9947;57.722;12.012;2023-08-20T13:05:21;101509.03;;;21.16;100.00
19600;BME280;9947;57.722;12.012;2023-08-20T13:07:52;101523.22;;;20.95;100.00
19600;BME280;9947;57.722;12.012;2023-08-20T13:10:22;101511.72;;;20.91;100.00
19600;BME280;9947;57.722;12.012;2023-08-20T13:12:54;101509.84;;;21.00;100.00
19600;BME280;9947;57.722;12.012;2023-08-20T13:15:26;101523.81;;;20.73;100.00
19600;BME280;9947;57.722;12.012;2023-08-20T13:17:55;101512.59;;;20.58;100.00
19600;BME280;9947;57.722;12.012;2023-08-20T13:20:25;101509.16;;;20.56;100.00
19600;BME280;9947;57.722;12.012;2023-08-20T13:22:57;101513.81;;;20.63;100.00
19600;BME280;9947;57.722;12.012;2023-08-20T13:25:25;101511.25;;;20.62;100.00
19600;BME280;9947;57.722;12.012;2023-08-20T13:28:04;101506.78;;;20.61;100.00
19600;BME280;9947;57.722;12.012;2023-08-20T13:30:33;101504.34;;;21.00;100.00
19600;BME280;9947;57.722;12.012;2023-08-20T13:33:05;101493.44;;;21.24;100.00
19600;BME280;9947;57.722;12.012;2023-08-20T13:38:01;101510.34;;;21.70;100.00
19600;BME280;9947;57.722;12.012;2023-08-20T13:40:52;101509.66;;;21.84;100.00
19600;BME280;9947;57.722;12.012;2023-08-20T13:43:24;101507.75;;;22.01;100.00
19600;BME280;9947;57.722;12.012;2023-08-20T13:45:52;101500.97;;;22.53;100.00
19600;BME280;9947;57.722;12.012;2023-08-20T13:50:59;101508.16;;;22.70;100.00
19600;BME280;9947;57.722;12.012;2023-08-20T13:53:28;101510.31;;;22.35;100.00
19600;BME280;9947;57.722;12.012;2023-08-20T13:56:00;101511.22;;;22.75;100.00
19600;BME280;9947;57.722;12.012;2023-08-20T13:58:33;101508.84;;;22.64;100.00
19600;BME280;9947;57.722;12.012;2023-08-20T14:01:01;101510.81;;;22.47;100.00
19600;BME280;9947;57.722;12.012;2023-08-20T14:03:29;101508.59;;;22.42;100.00
19600;BME280;9947;57.722;12.012;2023-08-20T14:05:59;101503.44;;;22.39;100.00
19600;BME280;9947;57.722;12.012;2023-08-20T14:08:32;101496.94;;;22.08;100.00
19600;BME280;9947;57.722;12.012;2023-08-20T14:11:00;101492.13;;;21.69;100.00
19600;BME280;9947;57.722;12.012;2023-08-20T14:13:31;101495.38;;;21.40;100.00
19600;BME280;9947;57.722;12.012;2023-08-20T14:15:58;101498.13;;;21.40;100.00
19600;BME280;9947;57.722;12.012;2023-08-20T14:18:27;101491.72;;;21.32;100.00
19600;BME280;9947;57.722;12.012;2023-08-20T14:20:59;101480.50;;;21.17;100.00
19600;BME280;9947;57.722;12.012;2023-08-20T14:23:27;101489.44;;;21.19;100.00
19600;BME280;9947;57.722;12.012;2023-08-20T14:25:57;101486.22;;;21.23;100.00
19600;BME280;9947;57.722;12.012;2023-08-20T14:28:33;101491.16;;;21.20;100.00
19600;BME280;9947;57.722;12.012;2023-08-20T14:31:02;101485.44;;;21.05;100.00
19600;BME280;9947;57.722;12.012;2023-08-20T14:33:31;101490.13;;;21.13;100.00
19600;BME280;9947;57.722;12.012;2023-08-20T14:35:59;101497.81;;;21.01;100.00
19600;BME280;9947;57.722;12.012;2023-08-20T14:38:31;101492.66;;;20.98;100.00
19600;BME280;9947;57.722;12.012;2023-08-20T14:41:02;101486.09;;;20.83;100.00